Time;durP1;ratioP1;P1;durP2;ratioP2;P2;SDS_P1;SDS_P2;PMS_P1;PMS_P2;Temp;Humidity;BMP_temperature;BMP_pressure;BME280_temperature;BME280_humidity;BME280_pressure;Samples;Min_cycle;Max_cycle;Signal;HPM_P1;HPM_P2
2023/05/08 00:00:56;;;;;;;4.38;2.28;;;;;;;;;;10303299;28;20163;-69
2023/05/08 00:05:55;;;;;;;4.18;2.35;;;;;;;;;;10302789;28;20047;-69
2023/05/08 00:10:53;;;;;;;4.88;2.00;;;;;;;;;;10299122;28;20502;-69
2023/05/08 00:15:53;;;;;;;4.93;2.08;;;;;;;;;;10301123;28;20346;-69
2023/05/08 00:20:53;;;;;;;4.03;2.20;;;;;;;;;;10300349;28;20096;-69
2023/05/08 00:25:53;;;;;;;4.82;2.50;;;;;;;;;;10300479;28;20118;-69
2023/05/08 00:30:55;;;;;;;6.25;2.13;;;;;;;;;;10300314;28;20477;-69
2023/05/08 00:35:58;;;;;;;3.00;2.15;;;;;;;;;;10293611;28;20088;-68
2023/05/08 00:40:57;;;;;;;4.85;2.17;;;;;;;;;;10294686;28;20476;-68
2023/05/08 00:45:56;;;;;;;5.20;2.30;;;;;;;;;;10295117;28;20075;-68
2023/05/08 00:50:55;;;;;;;4.53;2.47;;;;;;;;;;10299517;28;20090;-69
2023/05/08 00:55:54;;;;;;;8.43;3.05;;;;;;;;;;10297300;28;20079;-68
2023/05/08 01:00:54;;;;;;;3.78;2.08;;;;;;;;;;10299521;28;20067;-69
2023/05/08 01:05:54;;;;;;;2.25;2.05;;;;;;;;;;10296065;28;20080;-69
2023/05/08 01:10:57;;;;;;;4.65;2.08;;;;;;;;;;10298453;28;20076;-69
2023/05/08 01:16:01;;;;;;;3.05;2.00;;;;;;;;;;10297613;28;20071;-68
2023/05/08 01:21:03;;;;;;;3.03;2.30;;;;;;;;;;10299563;28;20116;-68
2023/05/08 01:26:34;;;;;;;3.92;2.13;;;;;;;;;;10297575;28;20067;-68
2023/05/08 01:31:37;;;;;;;2.70;2.00;;;;;;;;;;10292751;28;20087;-68
2023/05/08 01:36:41;;;;;;;6.82;2.28;;;;;;;;;;10298236;28;20068;-68
2023/05/08 01:41:41;;;;;;;3.72;2.38;;;;;;;;;;10294751;28;20049;-68
2023/05/08 01:46:39;;;;;;;3.03;2.10;;;;;;;;;;10296656;28;20095;-68
2023/05/08 01:51:42;;;;;;;2.72;2.10;;;;;;;;;;10297215;28;20547;-68
2023/05/08 01:56:42;;;;;;;3.38;2.20;;;;;;;;;;10297883;28;20072;-68
2023/05/08 02:01:41;;;;;;;2.20;2.00;;;;;;;;;;10290426;28;20079;-68
2023/05/08 02:06:41;;;;;;;3.53;2.20;;;;;;;;;;10296606;28;20068;-68
2023/05/08 02:11:41;;;;;;;3.50;2.30;;;;;;;;;;10295435;28;20083;-68
2023/05/08 02:16:40;;;;;;;2.67;2.17;;;;;;;;;;10302054;28;20076;-68
2023/05/08 02:21:39;;;;;;;3.15;1.95;;;;;;;;;;10293782;28;20095;-69
2023/05/08 02:26:39;;;;;;;3.55;2.63;;;;;;;;;;10296185;28;20067;-68
2023/05/08 02:31:38;;;;;;;5.20;2.25;;;;;;;;;;10296933;28;20072;-68
2023/05/08 02:36:37;;;;;;;5.05;3.00;;;;;;;;;;10290305;28;20048;-69
2023/05/08 02:41:37;;;;;;;5.03;2.72;;;;;;;;;;10294337;28;20075;-70
2023/05/08 02:46:41;;;;;;;5.57;2.00;;;;;;;;;;10293516;28;20085;-70
2023/05/08 02:51:46;;;;;;;5.40;2.88;;;;;;;;;;10303372;28;20525;-69
2023/05/08 02:56:50;;;;;;;8.38;3.20;;;;;;;;;;10300675;28;20072;-69
2023/05/08 03:01:51;;;;;;;7.68;2.90;;;;;;;;;;10302404;28;20060;-69
2023/05/08 03:06:52;;;;;;;6.05;2.50;;;;;;;;;;10300871;28;20045;-69
2023/05/08 03:11:52;;;;;;;3.38;2.30;;;;;;;;;;10303128;28;20064;-69
2023/05/08 03:16:53;;;;;;;3.25;2.00;;;;;;;;;;10314113;28;20048;-68
2023/05/08 03:21:51;;;;;;;3.72;2.30;;;;;;;;;;10294133;28;20136;-68
2023/05/08 03:26:50;;;;;;;2.67;2.00;;;;;;;;;;10300731;28;20095;-70
2023/05/08 03:31:48;;;;;;;4.30;2.45;;;;;;;;;;10302062;28;20076;-68
2023/05/08 03:36:48;;;;;;;2.35;1.85;;;;;;;;;;10296724;28;20064;-68
2023/05/08 03:41:48;;;;;;;2.67;2.10;;;;;;;;;;10304742;28;20068;-69
2023/05/08 03:46:47;;;;;;;6.70;3.47;;;;;;;;;;10298574;28;20072;-69
2023/05/08 03:51:46;;;;;;;2.28;2.00;;;;;;;;;;10298456;28;20072;-69
2023/05/08 03:56:46;;;;;;;7.20;3.50;;;;;;;;;;10313049;28;20083;-68
2023/05/08 04:01:50;;;;;;;3.72;2.58;;;;;;;;;;10310646;28;20064;-69
2023/05/08 04:06:50;;;;;;;4.93;2.90;;;;;;;;;;10300232;28;20052;-68
2023/05/08 04:12:01;;;;;;;6.43;3.60;;;;;;;;;;10302393;28;20342;-68
2023/05/08 04:16:59;;;;;;;;;;;;;;;;;;10298217;28;20433;-68
2023/05/08 04:21:59;;;;;;;5.03;2.63;;;;;;;;;;10301493;28;19964;-68
2023/05/08 04:26:59;;;;;;;7.22;3.45;;;;;;;;;;10302599;28;20061;-68
2023/05/08 04:31:59;;;;;;;4.35;2.97;;;;;;;;;;10300438;28;20087;-68
2023/05/08 04:36:58;;;;;;;4.75;3.15;;;;;;;;;;10298637;28;20071;-69
2023/05/08 04:42:01;;;;;;;3.88;2.78;;;;;;;;;;10312095;28;20460;-69
2023/05/08 04:47:03;;;;;;;5.47;3.15;;;;;;;;;;10298060;28;20075;-69
2023/05/08 04:52:01;;;;;;;7.55;4.28;;;;;;;;;;10299981;28;20501;-69
2023/05/08 04:57:00;;;;;;;5.25;3.35;;;;;;;;;;10300150;28;20057;-69
2023/05/08 05:02:01;;;;;;;8.95;3.10;;;;;;;;;;10303415;28;20476;-69
2023/05/08 05:07:02;;;;;;;3.05;2.72;;;;;;;;;;10310828;28;20082;-72
2023/05/08 05:12:00;;;;;;;4.30;2.78;;;;;;;;;;10299479;28;20083;-69
2023/05/08 05:17:00;;;;;;;3.40;2.35;;;;;;;;;;10287519;28;20072;-69
2023/05/08 05:21:59;;;;;;;22.55;3.42;;;;;;;;;;10303454;28;20521;-69
2023/05/08 05:26:59;;;;;;;4.63;2.55;;;;;;;;;;10310508;28;20466;-70
2023/05/08 05:31:57;;;;;;;6.00;3.33;;;;;;;;;;10295252;28;20068;-69
2023/05/08 05:36:56;;;;;;;4.82;2.40;;;;;;;;;;10290861;28;20064;-69
2023/05/08 05:41:55;;;;;;;5.03;2.67;;;;;;;;;;10301177;28;20079;-70
2023/05/08 05:46:56;;;;;;;6.32;2.17;;;;;;;;;;10293003;28;20086;-71
2023/05/08 05:51:54;;;;;;;4.13;2.55;;;;;;;;;;10308023;28;20084;-70
2023/05/08 05:56:52;;;;;;;5.90;3.47;;;;;;;;;;10297391;28;20068;-69
2023/05/08 06:01:51;;;;;;;7.47;2.67;;;;;;;;;;10293306;28;20065;-69
2023/05/08 06:06:50;;;;;;;5.93;2.88;;;;;;;;;;10293899;28;20068;-69
2023/05/08 06:11:49;;;;;;;5.47;3.40;;;;;;;;;;10306058;28;20083;-70
2023/05/08 06:16:47;;;;;;;6.22;3.20;;;;;;;;;;10289367;28;20060;-70
2023/05/08 06:21:46;;;;;;;5.20;2.72;;;;;;;;;;10288712;28;20076;-70
2023/05/08 06:26:46;;;;;;;4.47;2.47;;;;;;;;;;10292534;28;20080;-69
2023/05/08 06:31:44;;;;;;;3.15;2.63;;;;;;;;;;10291087;28;20073;-69
2023/05/08 06:36:42;;;;;;;4.32;2.70;;;;;;;;;;10289334;28;20084;-69
2023/05/08 06:41:41;;;;;;;4.00;3.10;;;;;;;;;;10294435;28;20068;-70
2023/05/08 06:46:40;;;;;;;5.00;2.90;;;;;;;;;;10294047;28;20075;-69
2023/05/08 06:51:39;;;;;;;8.13;2.60;;;;;;;;;;10296406;28;20455;-69
2023/05/08 06:56:37;;;;;;;9.82;6.90;;;;;;;;;;10295261;28;20076;-69
2023/05/08 07:01:36;;;;;;;5.80;3.45;;;;;;;;;;10296929;28;20551;-69
2023/05/08 07:06:36;;;;;;;4.15;3.63;;;;;;;;;;10297736;28;20072;-69
2023/05/08 07:11:34;;;;;;;6.30;3.50;;;;;;;;;;10303322;28;20072;-70
2023/05/08 07:16:32;;;;;;;4.10;2.70;;;;;;;;;;10297305;28;20450;-70
2023/05/08 07:21:30;;;;;;;7.28;4.10;;;;;;;;;;10291335;28;20076;-70
2023/05/08 07:26:30;;;;;;;6.00;3.25;;;;;;;;;;10295111;28;20454;-71
2023/05/08 07:31:28;;;;;;;4.50;2.55;;;;;;;;;;10294205;28;20087;-71
2023/05/08 07:36:27;;;;;;;6.13;2.72;;;;;;;;;;10296271;28;20069;-70
2023/05/08 07:41:25;;;;;;;8.75;2.95;;;;;;;;;;10294690;28;20068;-69
2023/05/08 07:46:25;;;;;;;4.68;3.03;;;;;;;;;;10299555;28;20076;-70
2023/05/08 07:51:23;;;;;;;4.35;2.38;;;;;;;;;;10303513;28;20081;-70
2023/05/08 07:56:22;;;;;;;3.92;2.47;;;;;;;;;;10302483;28;20076;-70
2023/05/08 08:01:20;;;;;;;4.75;2.88;;;;;;;;;;10302503;28;20075;-70
2023/05/08 08:06:20;;;;;;;6.13;5.15;;;;;;;;;;10300075;28;20060;-71
2023/05/08 08:11:18;;;;;;;6.78;3.58;;;;;;;;;;10307586;28;20497;-73
2023/05/08 08:16:16;;;;;;;8.45;5.57;;;;;;;;;;10300469;28;20187;-70
2023/05/08 08:21:15;;;;;;;5.80;3.40;;;;;;;;;;10304130;28;20114;-71
2023/05/08 08:26:15;;;;;;;13.65;4.43;;;;;;;;;;10308094;28;20072;-70
2023/05/08 08:31:15;;;;;;;5.43;3.22;;;;;;;;;;10294188;28;20510;-71
2023/05/08 08:36:13;;;;;;;4.95;3.63;;;;;;;;;;10311284;28;20161;-70
2023/05/08 08:41:13;;;;;;;7.35;4.75;;;;;;;;;;10293175;28;20071;-70
2023/05/08 08:46:14;;;;;;;5.80;3.60;;;;;;;;;;10302431;28;20064;-69
2023/05/08 08:51:14;;;;;;;8.15;2.97;;;;;;;;;;10305362;28;20075;-71
2023/05/08 08:56:14;;;;;;;4.57;2.97;;;;;;;;;;10306601;28;20084;-71
2023/05/08 09:01:16;;;;;;;9.77;3.25;;;;;;;;;;10303206;28;20064;-71
2023/05/08 09:06:14;;;;;;;5.93;2.80;;;;;;;;;;10296388;28;20584;-71
2023/05/08 09:11:13;;;;;;;6.18;3.10;;;;;;;;;;10318450;28;20498;-71
2023/05/08 09:16:11;;;;;;;9.88;3.83;;;;;;;;;;10301399;28;20075;-71
2023/05/08 09:21:11;;;;;;;6.65;3.00;;;;;;;;;;10301717;28;20064;-70
2023/05/08 09:26:09;;;;;;;6.43;2.90;;;;;;;;;;10292761;28;20061;-70
2023/05/08 09:31:07;;;;;;;4.05;2.90;;;;;;;;;;10296430;28;20080;-70
2023/05/08 09:36:06;;;;;;;8.82;3.45;;;;;;;;;;10295215;28;20489;-70
2023/05/08 09:41:09;;;;;;;8.27;3.20;;;;;;;;;;10303778;28;20098;-70
2023/05/08 09:46:20;;;;;;;6.03;3.63;;;;;;;;;;10299020;28;20072;-71
2023/05/08 09:51:19;;;;;;;7.50;3.85;;;;;;;;;;10299605;28;20497;-70
2023/05/08 09:56:29;;;;;;;7.50;4.00;;;;;;;;;;10290551;28;20170;-69
2023/05/08 10:01:30;;;;;;;10.68;3.88;;;;;;;;;;10299648;28;20101;-70
2023/05/08 10:06:28;;;;;;;7.63;4.60;;;;;;;;;;10295483;28;20076;-69
2023/05/08 10:11:26;;;;;;;10.75;4.40;;;;;;;;;;10295402;28;20092;-69
2023/05/08 10:16:28;;;;;;;8.38;4.15;;;;;;;;;;10295677;28;20064;-70
2023/05/08 10:21:28;;;;;;;5.72;4.07;;;;;;;;;;10299086;28;20086;-70
2023/05/08 10:26:27;;;;;;;10.18;5.10;;;;;;;;;;10303264;28;20075;-70
2023/05/08 10:31:28;;;;;;;10.00;4.28;;;;;;;;;;10292688;28;20068;-71
2023/05/08 10:36:27;;;;;;;6.82;3.80;;;;;;;;;;10295128;28;20079;-70
2023/05/08 10:41:28;;;;;;;13.52;3.88;;;;;;;;;;10287520;28;20484;-70
2023/05/08 10:46:31;;;;;;;10.25;3.78;;;;;;;;;;10296962;28;20600;-70
2023/05/08 10:51:35;;;;;;;9.23;3.65;;;;;;;;;;10294623;28;20079;-70
2023/05/08 10:56:33;;;;;;;6.47;4.07;;;;;;;;;;10296072;28;20470;-71
2023/05/08 11:01:32;;;;;;;5.13;3.90;;;;;;;;;;10301082;28;20083;-71
2023/05/08 11:06:44;;;;;;;6.95;3.78;;;;;;;;;;10294512;28;20068;-72
2023/05/08 11:11:49;;;;;;;5.43;3.83;;;;;;;;;;10293180;28;20073;-70
2023/05/08 11:17:07;;;;;;;10.27;3.97;;;;;;;;;;10304547;28;20543;-70
2023/05/08 11:22:13;;;;;;;9.52;4.40;;;;;;;;;;10299973;28;20446;-70
2023/05/08 11:27:11;;;;;;;12.05;3.88;;;;;;;;;;10297328;28;20512;-70
2023/05/08 11:32:11;;;;;;;8.32;3.97;;;;;;;;;;10295706;28;20449;-70
2023/05/08 11:37:09;;;;;;;9.05;5.00;;;;;;;;;;10297102;28;20068;-70
2023/05/08 11:42:27;;;;;;;10.27;4.75;;;;;;;;;;10304874;28;20064;-70
2023/05/08 11:47:31;;;;;;;6.88;4.03;;;;;;;;;;10297382;28;20506;-70
2023/05/08 11:52:31;;;;;;;7.05;5.38;;;;;;;;;;10309521;28;20072;-71
2023/05/08 11:57:30;;;;;;;5.35;4.80;;;;;;;;;;10304569;28;20120;-70
2023/05/08 12:02:41;;;;;;;6.68;5.10;;;;;;;;;;10302396;28;20068;-70
2023/05/08 12:07:43;;;;;;;8.05;5.00;;;;;;;;;;10299382;28;20069;-69
2023/05/08 12:12:42;;;;;;;6.47;5.45;;;;;;;;;;10294855;28;20120;-70
2023/05/08 12:17:42;;;;;;;11.02;6.00;;;;;;;;;;10290714;28;20505;-70
2023/05/08 12:22:41;;;;;;;6.85;5.38;;;;;;;;;;10288562;28;20060;-68
2023/05/08 12:27:39;;;;;;;6.75;5.65;;;;;;;;;;10292265;28;20072;-68
2023/05/08 12:32:38;;;;;;;8.73;5.93;;;;;;;;;;10307494;28;20087;-70
2023/05/08 12:37:38;;;;;;;10.93;6.43;;;;;;;;;;10291438;28;20063;-67
2023/05/08 12:42:42;;;;;;;8.50;7.18;;;;;;;;;;10291422;28;20454;-69
2023/05/08 12:47:40;;;;;;;11.30;8.20;;;;;;;;;;10298932;28;20525;-68
2023/05/08 12:52:40;;;;;;;8.95;6.63;;;;;;;;;;10301570;28;20068;-67
2023/05/08 12:57:40;;;;;;;7.60;6.88;;;;;;;;;;10293480;28;20075;-66
2023/05/08 13:02:38;;;;;;;12.77;6.72;;;;;;;;;;10292027;28;20064;-66
2023/05/08 13:07:47;;;;;;;8.43;6.93;;;;;;;;;;10286365;28;20064;-68
2023/05/08 13:12:46;;;;;;;10.27;9.23;;;;;;;;;;10289428;28;20072;-69
2023/05/08 13:17:44;;;;;;;8.38;6.50;;;;;;;;;;10296474;28;20084;-69
2023/05/08 13:22:43;;;;;;;11.30;9.90;;;;;;;;;;10292882;28;20073;-69
2023/05/08 13:27:43;;;;;;;10.10;8.88;;;;;;;;;;10287112;28;20051;-69
2023/05/08 13:32:41;;;;;;;12.10;10.27;;;;;;;;;;10296743;28;20071;-70
2023/05/08 13:37:39;;;;;;;14.20;12.93;;;;;;;;;;10293787;28;20071;-68
2023/05/08 13:42:37;;;;;;;14.38;12.63;;;;;;;;;;10294592;28;20083;-68
2023/05/08 13:47:37;;;;;;;8.52;7.72;;;;;;;;;;10294164;28;20072;-68
2023/05/08 13:52:35;;;;;;;9.10;7.15;;;;;;;;;;10294834;28;20072;-69
2023/05/08 13:57:33;;;;;;;5.97;5.38;;;;;;;;;;10297453;28;20075;-69
2023/05/08 14:02:32;;;;;;;6.75;5.93;;;;;;;;;;10297336;28;20060;-68
2023/05/08 14:07:31;;;;;;;6.93;6.22;;;;;;;;;;10296038;28;20064;-69
2023/05/08 14:12:32;;;;;;;5.70;4.38;;;;;;;;;;10296515;28;20045;-69
2023/05/08 14:17:30;;;;;;;5.70;4.68;;;;;;;;;;10296115;28;20455;-69
2023/05/08 14:22:28;;;;;;;5.63;4.90;;;;;;;;;;10295568;28;20064;-70
2023/05/08 14:27:28;;;;;;;7.97;5.28;;;;;;;;;;10296526;28;20509;-71
2023/05/08 14:32:26;;;;;;;8.30;6.05;;;;;;;;;;10294710;28;20103;-70
2023/05/08 14:37:24;;;;;;;8.18;6.25;;;;;;;;;;10295289;28;20075;-70
2023/05/08 14:42:22;;;;;;;5.65;5.15;;;;;;;;;;10295328;28;20064;-69
2023/05/08 14:47:23;;;;;;;5.68;5.13;;;;;;;;;;10300188;28;20098;-70
2023/05/08 14:52:21;;;;;;;7.25;6.20;;;;;;;;;;10308725;28;20064;-70
2023/05/08 14:57:19;;;;;;;11.43;7.85;;;;;;;;;;10309351;28;20068;-70
2023/05/08 15:02:19;;;;;;;11.82;9.48;;;;;;;;;;10304283;28;20071;-69
2023/05/08 15:07:19;;;;;;;18.73;13.55;;;;;;;;;;10304197;28;20064;-70
2023/05/08 15:12:17;;;;;;;10.10;8.57;;;;;;;;;;10308656;28;20065;-70
2023/05/08 15:17:15;;;;;;;8.65;6.13;;;;;;;;;;10308667;28;20068;-70
2023/05/08 15:22:13;;;;;;;8.20;6.47;;;;;;;;;;10307174;28;20091;-70
2023/05/08 15:27:13;;;;;;;11.07;8.65;;;;;;;;;;10306005;28;20079;-69
2023/05/08 15:32:11;;;;;;;9.15;8.20;;;;;;;;;;10307523;28;20075;-70
2023/05/08 15:37:10;;;;;;;9.80;7.72;;;;;;;;;;10306580;28;20071;-69
2023/05/08 15:42:08;;;;;;;11.65;8.27;;;;;;;;;;10308309;28;20524;-70
2023/05/08 15:47:08;;;;;;;15.30;8.30;;;;;;;;;;10306233;28;20080;-70
2023/05/08 15:52:06;;;;;;;10.52;9.07;;;;;;;;;;10307761;28;20072;-69
2023/05/08 15:57:04;;;;;;;17.45;14.55;;;;;;;;;;10301116;28;20072;-70
2023/05/08 16:02:02;;;;;;;10.35;8.60;;;;;;;;;;10296990;28;20068;-69
2023/05/08 16:07:03;;;;;;;13.35;9.50;;;;;;;;;;10301961;28;20067;-68
2023/05/08 16:12:01;;;;;;;16.25;14.07;;;;;;;;;;10305826;28;20068;-69
2023/05/08 16:16:59;;;;;;;12.23;10.40;;;;;;;;;;10295769;28;20079;-68
2023/05/08 16:21:57;;;;;;;9.50;7.53;;;;;;;;;;10303129;28;20083;-69
2023/05/08 16:26:57;;;;;;;9.88;7.78;;;;;;;;;;10291737;28;20068;-68
2023/05/08 16:31:55;;;;;;;12.57;7.63;;;;;;;;;;10303563;28;20068;-68
2023/05/08 16:36:53;;;;;;;15.57;12.70;;;;;;;;;;10295959;28;20072;-67
2023/05/08 16:41:52;;;;;;;13.05;11.52;;;;;;;;;;10297042;28;20063;-68
2023/05/08 16:46:51;;;;;;;11.82;7.78;;;;;;;;;;10293789;28;20107;-67
2023/05/08 16:51:49;;;;;;;9.80;8.18;;;;;;;;;;10298506;28;20470;-69
2023/05/08 16:56:48;;;;;;;8.70;7.88;;;;;;;;;;10294872;28;20072;-69
2023/05/08 17:01:46;;;;;;;7.95;7.20;;;;;;;;;;10303461;28;20110;-68
2023/05/08 17:06:45;;;;;;;9.48;6.45;;;;;;;;;;10299730;28;20533;-68
2023/05/08 17:11:47;;;;;;;11.60;7.30;;;;;;;;;;10314722;28;20586;-69
2023/05/08 17:16:45;;;;;;;8.05;7.25;;;;;;;;;;10297300;28;20147;-68
2023/05/08 17:21:43;;;;;;;7.75;6.93;;;;;;;;;;10301474;28;20480;-69
2023/05/08 17:26:43;;;;;;;7.57;6.78;;;;;;;;;;10297269;28;20080;-69
2023/05/08 17:31:41;;;;;;;7.68;6.88;;;;;;;;;;10300037;28;20099;-69
2023/05/08 17:36:39;;;;;;;17.83;13.23;;;;;;;;;;10293076;28;20127;-69
2023/05/08 17:41:38;;;;;;;11.27;10.18;;;;;;;;;;10298795;28;20082;-69
2023/05/08 17:46:37;;;;;;;14.35;10.48;;;;;;;;;;10301154;28;20064;-68
2023/05/08 17:51:35;;;;;;;16.98;8.32;;;;;;;;;;10295399;28;20076;-68
2023/05/08 17:56:34;;;;;;;9.02;7.38;;;;;;;;;;10291541;28;20144;-69
2023/05/08 18:01:32;;;;;;;9.60;7.68;;;;;;;;;;10301374;28;20072;-69
2023/05/08 18:06:32;;;;;;;7.10;6.38;;;;;;;;;;10299790;28;20080;-69
2023/05/08 18:11:30;;;;;;;8.20;7.15;;;;;;;;;;10292966;28;20080;-70
2023/05/08 18:16:28;;;;;;;11.00;8.15;;;;;;;;;;10294841;28;20079;-70
2023/05/08 18:21:27;;;;;;;7.78;6.38;;;;;;;;;;10292198;28;20115;-70
2023/05/08 18:26:27;;;;;;;7.70;6.68;;;;;;;;;;10289920;28;20080;-69
2023/05/08 18:31:25;;;;;;;7.75;6.93;;;;;;;;;;10296467;28;20466;-69
2023/05/08 18:36:23;;;;;;;11.52;8.32;;;;;;;;;;10295334;28;20071;-69
2023/05/08 18:41:22;;;;;;;8.40;7.07;;;;;;;;;;10291892;28;20087;-68
2023/05/08 18:46:21;;;;;;;9.75;7.85;;;;;;;;;;10294963;28;20068;-68
2023/05/08 18:51:20;;;;;;;7.90;6.88;;;;;;;;;;10296573;28;20075;-69
2023/05/08 18:56:18;;;;;;;8.85;7.55;;;;;;;;;;10297579;28;20076;-68
2023/05/08 19:01:18;;;;;;;7.88;6.75;;;;;;;;;;10290630;28;20079;-69
2023/05/08 19:06:18;;;;;;;8.13;7.43;;;;;;;;;;10301907;28;20056;-69
2023/05/08 19:11:16;;;;;;;9.10;7.72;;;;;;;;;;10297590;28;20071;-70
2023/05/08 19:16:15;;;;;;;10.55;7.97;;;;;;;;;;10297150;28;20068;-69
2023/05/08 19:21:13;;;;;;;9.95;8.13;;;;;;;;;;10291165;28;20091;-69
2023/05/08 19:26:13;;;;;;;9.35;8.38;;;;;;;;;;10290167;28;20079;-70
2023/05/08 19:31:13;;;;;;;9.85;8.25;;;;;;;;;;10291025;28;20518;-70
2023/05/08 19:36:12;;;;;;;12.52;7.45;;;;;;;;;;10297392;28;20081;-69
2023/05/08 19:41:11;;;;;;;10.90;8.48;;;;;;;;;;10295415;28;20162;-70
2023/05/08 19:46:10;;;;;;;12.18;8.80;;;;;;;;;;10298190;28;20065;-70
2023/05/08 19:51:08;;;;;;;8.02;7.22;;;;;;;;;;10297732;28;20076;-70
2023/05/08 19:56:06;;;;;;;8.48;7.60;;;;;;;;;;10302669;28;20107;-70
2023/05/08 20:01:05;;;;;;;10.48;8.07;;;;;;;;;;10299141;28;20517;-71
2023/05/08 20:06:05;;;;;;;10.13;9.02;;;;;;;;;;10303192;28;20064;-71
2023/05/08 20:11:04;;;;;;;9.40;8.50;;;;;;;;;;10300034;28;20078;-71
2023/05/08 20:16:02;;;;;;;11.45;8.85;;;;;;;;;;10300137;28;20089;-71
2023/05/08 20:21:00;;;;;;;9.30;8.32;;;;;;;;;;10298859;28;20080;-71
2023/05/08 20:26:00;;;;;;;7.47;6.82;;;;;;;;;;10297523;28;20072;-70
2023/05/08 20:30:59;;;;;;;8.18;7.38;;;;;;;;;;10292397;28;20080;-70
2023/05/08 20:35:57;;;;;;;6.90;6.30;;;;;;;;;;10294663;28;20518;-70
2023/05/08 20:40:57;;;;;;;5.40;4.90;;;;;;;;;;10303662;28;20072;-69
2023/05/08 20:45:59;;;;;;;5.28;4.78;;;;;;;;;;10304117;28;20071;-70
2023/05/08 20:50:58;;;;;;;2.78;2.53;;;;;;;;;;10297212;28;20064;-69
2023/05/08 20:56:01;;;;;;;2.15;2.05;;;;;;;;;;10294737;28;20091;-69
2023/05/08 21:01:01;;;;;;;1.85;1.75;;;;;;;;;;10292235;28;20068;-69
2023/05/08 21:05:59;;;;;;;1.80;1.70;;;;;;;;;;10293940;28;20501;-69
2023/05/08 21:10:57;;;;;;;2.08;1.88;;;;;;;;;;10294301;28;20064;-69
2023/05/08 21:15:56;;;;;;;1.80;1.70;;;;;;;;;;10297858;28;20138;-69
2023/05/08 21:20:55;;;;;;;3.70;2.03;;;;;;;;;;10296706;28;20073;-69
2023/05/08 21:25:54;;;;;;;2.45;2.25;;;;;;;;;;10298393;28;20071;-69
2023/05/08 21:30:52;;;;;;;2.97;2.78;;;;;;;;;;10298021;28;20068;-69
2023/05/08 21:35:52;;;;;;;3.60;3.30;;;;;;;;;;10296100;28;20103;-69
2023/05/08 21:40:52;;;;;;;4.25;3.80;;;;;;;;;;10303377;28;20073;-68
2023/05/08 21:45:50;;;;;;;3.97;3.20;;;;;;;;;;10298305;28;20060;-69
2023/05/08 21:50:49;;;;;;;3.95;3.60;;;;;;;;;;10292295;28;20478;-69
2023/05/08 21:55:47;;;;;;;4.53;3.42;;;;;;;;;;10294847;28;20091;-69
2023/05/08 22:00:46;;;;;;;8.35;3.30;;;;;;;;;;10296482;28;20061;-69
2023/05/08 22:05:45;;;;;;;4.18;3.85;;;;;;;;;;10297366;28;20060;-69
2023/05/08 22:10:43;;;;;;;4.35;3.97;;;;;;;;;;10296356;28;20111;-69
2023/05/08 22:15:42;;;;;;;4.22;3.85;;;;;;;;;;10297562;28;20076;-69
2023/05/08 22:20:41;;;;;;;4.88;3.92;;;;;;;;;;10297363;28;20080;-69
2023/05/08 22:25:39;;;;;;;5.55;4.68;;;;;;;;;;10294912;28;20068;-68
2023/05/08 22:30:38;;;;;;;7.22;6.10;;;;;;;;;;10297470;28;20072;-69
2023/05/08 22:35:36;;;;;;;6.97;6.20;;;;;;;;;;10297762;28;20068;-69
2023/05/08 22:40:36;;;;;;;7.85;6.93;;;;;;;;;;10295097;28;20075;-68
2023/05/08 22:45:34;;;;;;;6.15;5.55;;;;;;;;;;10295693;28;20068;-68
2023/05/08 22:50:32;;;;;;;6.80;6.07;;;;;;;;;;10298108;28;20091;-69
2023/05/08 22:55:30;;;;;;;6.95;6.35;;;;;;;;;;10289825;28;20522;-69
2023/05/08 23:00:30;;;;;;;10.32;7.13;;;;;;;;;;10295079;28;20072;-70
2023/05/08 23:05:28;;;;;;;11.85;7.03;;;;;;;;;;10296600;28;20645;-70
2023/05/08 23:10:27;;;;;;;10.77;6.57;;;;;;;;;;10300926;28;20087;-69
2023/05/08 23:15:25;;;;;;;7.93;6.35;;;;;;;;;;10303525;28;20081;-69
2023/05/08 23:20:28;;;;;;;7.32;5.72;;;;;;;;;;10302748;28;20095;-69
2023/05/08 23:25:26;;;;;;;8.07;6.35;;;;;;;;;;10302149;28;20452;-70
2023/05/08 23:30:25;;;;;;;11.50;7.03;;;;;;;;;;10301582;28;20604;-69
2023/05/08 23:35:23;;;;;;;7.20;6.50;;;;;;;;;;10303754;28;20178;-69
2023/05/08 23:40:23;;;;;;;9.63;6.95;;;;;;;;;;10304070;28;20076;-68
2023/05/08 23:45:21;;;;;;;8.13;6.57;;;;;;;;;;10301278;28;20721;-69
2023/05/08 23:50:19;;;;;;;7.72;7.03;;;;;;;;;;10299494;28;20084;-69
2023/05/08 23:55:17;;;;;;;9.73;6.78;;;;;;;;;;10301977;28;20067;-69
